createdAt,value
2022-11-26T00:00:35.405Z,6.20
2022-11-26T00:03:03.343Z,6.20
2022-11-26T00:05:31.760Z,6.20
2022-11-26T00:08:00.310Z,6.30
2022-11-26T00:10:30.473Z,6.20
2022-11-26T00:12:58.701Z,6.40
2022-11-26T00:15:27.208Z,6.10
2022-11-26T00:17:55.056Z,6.10
2022-11-26T00:20:23.599Z,6.20
2022-11-26T00:22:52.506Z,6.20
2022-11-26T00:25:21.089Z,6.10
2022-11-26T00:27:50.336Z,6.00
2022-11-26T00:30:19.601Z,6.00
2022-11-26T00:32:47.404Z,6.00
2022-11-26T00:35:15.727Z,6.00
2022-11-26T00:37:46.038Z,6.00
2022-11-26T00:40:24.343Z,6.00
2022-11-26T00:42:57.382Z,6.10
2022-11-26T00:45:29.461Z,6.00
2022-11-26T00:47:57.447Z,6.00
2022-11-26T00:50:26.426Z,6.00
2022-11-26T00:52:54.752Z,5.90
2022-11-26T00:55:28.773Z,6.10
2022-11-26T00:57:58.240Z,6.00
2022-11-26T01:00:28.628Z,5.90
2022-11-26T01:02:56.641Z,5.80
2022-11-26T01:05:25.977Z,5.90
2022-11-26T01:07:54.015Z,5.90
2022-11-26T01:10:22.930Z,5.70
2022-11-26T01:12:51.501Z,5.70
2022-11-26T01:15:21.575Z,5.70
2022-11-26T01:17:49.469Z,5.80
2022-11-26T01:20:25.533Z,5.70
2022-11-26T01:22:54.253Z,5.60
2022-11-26T01:25:22.215Z,5.60
2022-11-26T01:27:50.078Z,5.60
2022-11-26T01:30:22.161Z,5.70
2022-11-26T01:32:50.387Z,5.50
2022-11-26T01:35:18.445Z,5.50
2022-11-26T01:37:46.360Z,5.70
2022-11-26T01:40:28.268Z,5.50
2022-11-26T01:42:57.442Z,5.40
2022-11-26T01:45:26.705Z,5.40
2022-11-26T01:47:54.661Z,5.50
2022-11-26T01:50:49.687Z,5.40
2022-11-26T01:53:22.641Z,5.50
2022-11-26T01:55:51.548Z,5.50
2022-11-26T01:58:21.442Z,5.50
2022-11-26T02:00:50.910Z,5.40
2022-11-26T02:03:19.254Z,5.30
2022-11-26T02:05:50.164Z,5.30
2022-11-26T02:08:18.181Z,5.30
2022-11-26T02:10:46.205Z,5.30
2022-11-26T02:13:14.213Z,5.30
2022-11-26T02:15:45.107Z,5.30
2022-11-26T02:18:14.503Z,5.30
2022-11-26T02:20:46.513Z,5.30
2022-11-26T02:23:41.936Z,5.40
2022-11-26T02:26:32.837Z,5.40
2022-11-26T02:29:04.849Z,5.50
2022-11-26T02:31:36.564Z,5.40
2022-11-26T02:34:07.931Z,5.50
2022-11-26T02:36:36.924Z,5.50
2022-11-26T02:39:13.176Z,5.50
2022-11-26T02:41:45.101Z,5.50
2022-11-26T02:44:13.292Z,5.50
2022-11-26T02:46:42.653Z,5.50
2022-11-26T02:49:10.687Z,5.50
2022-11-26T02:51:38.651Z,5.50
2022-11-26T02:54:06.848Z,5.40
2022-11-26T02:56:34.824Z,5.40
2022-11-26T02:59:02.771Z,5.30
2022-11-26T03:01:33.302Z,5.40
2022-11-26T03:04:04.231Z,5.40
2022-11-26T03:06:33.596Z,5.40
2022-11-26T03:09:01.628Z,5.30
2022-11-26T03:11:30.225Z,5.30
2022-11-26T03:13:58.167Z,5.40
2022-11-26T03:16:26.223Z,5.40
2022-11-26T03:18:54.174Z,5.40
2022-11-26T03:21:23.433Z,5.30
2022-11-26T03:23:51.352Z,5.20
2022-11-26T03:26:19.308Z,5.40
2022-11-26T03:28:47.510Z,5.40
2022-11-26T03:31:15.470Z,5.30
2022-11-26T03:33:43.420Z,5.40
2022-11-26T03:36:11.451Z,5.40
2022-11-26T03:38:40.726Z,5.30
2022-11-26T03:41:08.647Z,5.30
2022-11-26T03:43:36.556Z,5.30
2022-11-26T03:46:04.499Z,5.30
2022-11-26T03:48:32.427Z,5.20
2022-11-26T03:51:00.363Z,5.40
2022-11-26T03:53:28.290Z,5.40
2022-11-26T03:55:57.613Z,5.40
2022-11-26T03:58:25.540Z,5.50
2022-11-26T04:00:53.481Z,5.60
2022-11-26T04:03:21.397Z,5.60
2022-11-26T04:05:49.359Z,5.40
2022-11-26T04:08:17.281Z,5.40
2022-11-26T04:10:45.204Z,5.30
2022-11-26T04:13:14.474Z,5.30
2022-11-26T04:15:42.762Z,5.50
2022-11-26T04:18:10.705Z,5.50
2022-11-26T04:20:38.616Z,5.40
2022-11-26T04:23:06.619Z,5.40
2022-11-26T04:25:34.627Z,5.40
2022-11-26T04:28:02.505Z,5.20
2022-11-26T04:30:31.739Z,5.40
2022-11-26T04:32:59.606Z,5.50
2022-11-26T04:35:27.525Z,5.60
2022-11-26T04:37:55.406Z,5.50
2022-11-26T04:40:23.342Z,5.40
2022-11-26T04:42:51.222Z,5.30
2022-11-26T04:45:19.237Z,5.30
2022-11-26T04:47:48.509Z,5.40
2022-11-26T04:50:16.465Z,5.30
2022-11-26T04:52:44.749Z,5.30
2022-11-26T04:55:12.669Z,5.20
2022-11-26T04:57:40.573Z,5.20
2022-11-26T05:00:09.715Z,5.20
2022-11-26T05:02:37.701Z,5.20
2022-11-26T05:05:07.744Z,5.20
2022-11-26T05:07:35.706Z,5.20
2022-11-26T05:10:03.678Z,5.20
2022-11-26T05:12:31.591Z,5.20
2022-11-26T05:14:59.494Z,5.20
2022-11-26T05:17:27.417Z,5.20
2022-11-26T05:19:55.323Z,5.30
2022-11-26T05:22:24.633Z,5.30
2022-11-26T05:24:52.502Z,5.40
2022-11-26T05:27:20.440Z,5.60
2022-11-26T05:29:48.327Z,5.40
2022-11-26T05:32:16.308Z,5.20
2022-11-26T05:34:44.225Z,5.20
2022-11-26T05:37:12.148Z,5.20
2022-11-26T05:39:41.402Z,5.20
2022-11-26T05:42:09.772Z,5.30
2022-11-26T05:44:38.113Z,5.30
2022-11-26T05:47:06.390Z,5.40
2022-11-26T05:49:34.336Z,5.30
2022-11-26T05:52:02.256Z,5.30
2022-11-26T05:54:30.319Z,5.30
2022-11-26T05:57:00.472Z,5.20
2022-11-26T05:59:28.735Z,5.20
2022-11-26T06:01:56.722Z,5.20
2022-11-26T06:04:25.177Z,5.20
2022-11-26T06:06:53.117Z,5.20
2022-11-26T06:09:21.077Z,5.10
2022-11-26T06:11:50.103Z,5.20
2022-11-26T06:14:19.436Z,5.20
2022-11-26T06:16:47.485Z,5.30
2022-11-26T06:19:15.443Z,5.40
2022-11-26T06:21:43.344Z,5.40
2022-11-26T06:24:11.260Z,5.50
2022-11-26T06:26:39.175Z,5.40
2022-11-26T06:29:07.097Z,5.30
2022-11-26T06:31:36.435Z,5.20
2022-11-26T06:34:04.406Z,5.30
2022-11-26T06:36:32.304Z,5.20
2022-11-26T06:39:00.178Z,5.30
2022-11-26T06:41:29.148Z,5.20
2022-11-26T06:43:57.059Z,5.20
2022-11-26T06:46:24.992Z,5.10
2022-11-26T06:48:54.223Z,5.20
2022-11-26T06:51:22.243Z,5.20
2022-11-26T06:53:50.351Z,5.20
2022-11-26T06:56:19.401Z,5.30
2022-11-26T06:58:47.590Z,5.30
2022-11-26T07:01:16.382Z,5.40
2022-11-26T07:03:44.350Z,5.30
2022-11-26T07:06:18.716Z,5.20
2022-11-26T07:08:46.634Z,5.20
2022-11-26T07:11:14.593Z,5.30
2022-11-26T07:13:42.512Z,5.20
2022-11-26T07:16:10.482Z,5.20
2022-11-26T07:18:38.548Z,5.10
2022-11-26T07:21:06.943Z,5.10
2022-11-26T07:23:36.217Z,5.20
2022-11-26T07:26:04.400Z,5.20
2022-11-26T07:28:32.390Z,5.20
2022-11-26T07:31:01.942Z,5.30
2022-11-26T07:33:30.033Z,5.30
2022-11-26T07:36:00.451Z,5.30
2022-11-26T07:38:28.440Z,5.30
2022-11-26T07:41:03.529Z,5.30
2022-11-26T07:43:31.443Z,5.40
2022-11-26T07:46:01.824Z,6.00
2022-11-26T07:48:30.662Z,6.40
2022-11-26T07:50:58.749Z,6.60
2022-11-26T07:53:28.565Z,6.90
2022-11-26T07:55:57.861Z,6.50
2022-11-26T07:58:26.760Z,6.00
2022-11-26T08:00:55.193Z,5.80
2022-11-26T08:03:23.166Z,5.90
2022-11-26T08:05:51.599Z,6.00
2022-11-26T08:08:19.569Z,5.80
2022-11-26T08:10:47.456Z,5.70
2022-11-26T08:13:16.730Z,5.70
2022-11-26T08:15:44.698Z,5.80
2022-11-26T08:18:12.866Z,5.90
2022-11-26T08:20:40.797Z,5.80
2022-11-26T08:23:08.823Z,5.70
2022-11-26T08:25:39.005Z,5.70
2022-11-26T08:28:13.092Z,5.70
2022-11-26T08:30:42.463Z,5.70
2022-11-26T08:33:10.427Z,5.80
2022-11-26T08:36:04.995Z,5.90
2022-11-26T08:38:27.376Z,5.90
2022-11-26T08:40:55.302Z,5.80
2022-11-26T08:43:30.939Z,5.90
2022-11-26T08:46:12.614Z,6.00
2022-11-26T08:48:40.561Z,6.10
2022-11-26T08:51:10.495Z,6.20
2022-11-26T08:53:38.580Z,6.20
2022-11-26T08:56:07.848Z,6.10
2022-11-26T08:58:36.322Z,5.90
2022-11-26T09:01:09.567Z,6.00
2022-11-26T09:03:39.334Z,6.00
2022-11-26T09:06:08.518Z,6.00
2022-11-26T09:08:56.614Z,6.10
2022-11-26T09:11:24.552Z,6.20
2022-11-26T09:13:53.462Z,6.20
2022-11-26T09:16:21.426Z,6.10
2022-11-26T09:18:51.092Z,6.00
2022-11-26T09:21:19.045Z,6.00
2022-11-26T09:23:46.987Z,5.90
2022-11-26T09:26:14.900Z,5.90
2022-11-26T09:28:42.829Z,6.00
2022-11-26T09:31:10.678Z,6.00
2022-11-26T09:33:38.553Z,6.00
2022-11-26T09:36:09.013Z,6.10
2022-11-26T09:38:37.065Z,6.10
2022-11-26T09:41:08.482Z,6.10
2022-11-26T09:43:40.737Z,6.10
2022-11-26T09:46:08.680Z,6.20
2022-11-26T09:48:36.654Z,6.10
2022-11-26T09:51:08.273Z,6.10
2022-11-26T09:53:37.588Z,6.00
2022-11-26T09:56:05.989Z,6.10
2022-11-26T09:58:35.588Z,6.20
2022-11-26T10:01:06.011Z,6.20
2022-11-26T10:03:34.799Z,6.10
2022-11-26T10:06:03.427Z,6.00
2022-11-26T10:08:56.082Z,6.10
2022-11-26T10:11:26.802Z,6.30
2022-11-26T10:13:58.681Z,6.30
2022-11-26T10:16:29.046Z,6.20
2022-11-26T10:19:01.220Z,6.20
2022-11-26T10:21:57.148Z,6.30
2022-11-26T10:24:22.300Z,6.40
2022-11-26T10:26:50.233Z,6.50
2022-11-26T10:29:22.620Z,6.60
2022-11-26T10:31:51.508Z,6.60
2022-11-26T10:34:20.301Z,6.50
2022-11-26T10:36:48.555Z,6.40
2022-11-26T10:39:18.738Z,6.60
2022-11-26T10:41:46.762Z,6.70
2022-11-26T10:44:31.455Z,6.60
2022-11-26T10:46:59.623Z,6.60
2022-11-26T10:49:28.455Z,6.70
2022-11-26T10:51:58.889Z,6.90
2022-11-26T10:54:30.793Z,6.90
2022-11-26T10:57:02.209Z,6.70
2022-11-26T10:59:31.810Z,6.80
2022-11-26T11:02:02.934Z,7.00
2022-11-26T11:04:31.998Z,7.00
2022-11-26T11:06:59.925Z,7.00
2022-11-26T11:09:31.812Z,7.20
2022-11-26T11:12:18.827Z,7.10
2022-11-26T11:14:47.228Z,7.20
2022-11-26T11:17:35.309Z,7.30
2022-11-26T11:20:22.051Z,7.10
2022-11-26T11:22:57.538Z,7.20
2022-11-26T11:25:27.513Z,7.30
2022-11-26T11:27:55.461Z,7.40
2022-11-26T11:30:25.879Z,7.50
2022-11-26T11:32:56.295Z,7.50
2022-11-26T11:35:25.237Z,7.60
2022-11-26T11:37:53.889Z,7.70
2022-11-26T11:40:25.451Z,7.90
2022-11-26T11:42:56.215Z,8.10
2022-11-26T11:45:29.250Z,8.10
2022-11-26T11:47:58.936Z,7.90
2022-11-26T11:50:31.419Z,7.80
2022-11-26T11:53:19.523Z,7.90
2022-11-26T11:56:00.947Z,8.10
2022-11-26T11:59:00.030Z,8.00
2022-11-26T12:01:36.176Z,7.80
2022-11-26T12:04:19.941Z,7.70
2022-11-26T12:06:54.794Z,7.60
2022-11-26T12:09:26.239Z,7.80
2022-11-26T12:11:56.576Z,7.80
2022-11-26T12:14:27.391Z,8.00
2022-11-26T12:16:57.278Z,8.00
2022-11-26T12:19:30.395Z,8.00
2022-11-26T12:22:00.153Z,7.90
2022-11-26T12:24:36.655Z,7.70
2022-11-26T12:27:05.776Z,7.80
2022-11-26T12:29:38.174Z,7.80
2022-11-26T12:32:10.483Z,7.80
2022-11-26T12:34:40.650Z,7.70
2022-11-26T12:37:13.807Z,7.70
2022-11-26T12:39:51.852Z,7.70
2022-11-26T12:42:24.724Z,7.50
2022-11-26T12:44:54.510Z,7.50
2022-11-26T12:47:25.390Z,7.60
2022-11-26T12:50:02.983Z,7.70
2022-11-26T12:52:33.505Z,7.70
2022-11-26T12:55:04.809Z,7.60
2022-11-26T12:57:34.260Z,7.60
2022-11-26T13:00:06.409Z,7.60
2022-11-26T13:02:36.579Z,7.60
2022-11-26T13:05:04.578Z,7.60
2022-11-26T13:07:43.016Z,7.50
2022-11-26T13:10:19.216Z,7.40
2022-11-26T13:12:49.898Z,7.30
2022-11-26T13:15:23.076Z,7.40
2022-11-26T13:17:51.191Z,7.40
2022-11-26T13:20:30.114Z,7.40
2022-11-26T13:23:10.825Z,7.50
2022-11-26T13:25:45.930Z,7.40
2022-11-26T13:28:19.418Z,7.40
2022-11-26T13:30:53.492Z,7.40
2022-11-26T13:33:32.885Z,7.40
2022-11-26T13:36:52.010Z,7.30
2022-11-26T13:40:03.490Z,6.60
2022-11-26T13:43:09.929Z,6.40
2022-11-26T13:46:00.381Z,6.40
2022-11-26T13:48:31.188Z,6.00
2022-11-26T13:51:00.491Z,5.90
2022-11-26T13:53:30.017Z,5.70
2022-11-26T13:55:58.936Z,5.60
2022-11-26T13:58:28.957Z,5.80
2022-11-26T14:00:58.299Z,5.70
2022-11-26T14:03:45.818Z,5.60
2022-11-26T14:06:13.814Z,5.70
2022-11-26T14:08:43.286Z,5.70
2022-11-26T14:11:11.300Z,5.60
2022-11-26T14:13:39.307Z,5.80
2022-11-26T14:16:09.157Z,5.80
2022-11-26T14:19:00.887Z,5.90
2022-11-26T14:21:30.508Z,6.00
2022-11-26T14:24:00.095Z,5.90
2022-11-26T14:26:30.972Z,5.90
2022-11-26T14:29:06.419Z,5.90
2022-11-26T14:31:35.992Z,6.00
2022-11-26T14:34:06.317Z,6.00
2022-11-26T14:36:34.226Z,5.90
2022-11-26T14:39:06.482Z,5.90
2022-11-26T14:41:36.077Z,6.00
2022-11-26T14:44:07.864Z,5.90
2022-11-26T14:46:37.157Z,5.80
2022-11-26T14:49:15.221Z,5.90
2022-11-26T14:51:44.647Z,5.80
2022-11-26T14:54:12.970Z,5.70
2022-11-26T14:56:46.167Z,5.70
2022-11-26T14:59:16.164Z,5.70
2022-11-26T15:01:46.090Z,5.70
2022-11-26T15:04:23.907Z,5.60
2022-11-26T15:06:51.841Z,5.50
2022-11-26T15:09:21.733Z,5.30
2022-11-26T15:11:50.311Z,5.30
2022-11-26T15:14:21.414Z,5.40
2022-11-26T15:16:54.431Z,5.30
2022-11-26T15:19:22.417Z,5.20
2022-11-26T15:21:51.026Z,5.20
2022-11-26T15:24:19.000Z,5.30
2022-11-26T15:26:47.367Z,5.20
2022-11-26T15:29:30.388Z,5.20
2022-11-26T15:31:59.957Z,5.30
2022-11-26T15:34:28.301Z,5.20
2022-11-26T15:36:56.271Z,5.10
2022-11-26T15:39:29.083Z,5.30
2022-11-26T15:41:59.976Z,5.20
2022-11-26T15:44:28.434Z,5.10
2022-11-26T15:46:57.369Z,5.10
2022-11-26T15:49:27.810Z,5.10
2022-11-26T15:51:57.074Z,4.90
2022-11-26T15:54:30.807Z,5.00
2022-11-26T15:57:08.300Z,5.00
2022-11-26T15:59:41.109Z,5.00
2022-11-26T16:02:17.332Z,4.90
2022-11-26T16:04:47.600Z,4.90
2022-11-26T16:07:17.401Z,4.70
2022-11-26T16:09:45.501Z,4.70
2022-11-26T16:12:27.296Z,4.80
2022-11-26T16:14:55.928Z,4.60
2022-11-26T16:17:23.796Z,4.50
2022-11-26T16:19:54.684Z,4.40
2022-11-26T16:22:27.125Z,4.40
2022-11-26T16:25:02.547Z,4.40
2022-11-26T16:27:31.380Z,4.50
2022-11-26T16:29:59.419Z,4.50
2022-11-26T16:32:27.359Z,4.60
2022-11-26T16:34:56.600Z,4.60
2022-11-26T16:37:25.342Z,4.70
2022-11-26T16:39:53.995Z,4.50
2022-11-26T16:42:22.827Z,4.40
2022-11-26T16:44:50.833Z,4.50
2022-11-26T16:47:23.345Z,4.50
2022-11-26T16:49:51.668Z,4.60
2022-11-26T16:52:21.074Z,4.70
2022-11-26T16:54:49.035Z,4.60
2022-11-26T16:57:18.930Z,4.60
2022-11-26T16:59:48.085Z,4.60
2022-11-26T17:02:17.239Z,4.50
2022-11-26T17:04:45.238Z,4.50
2022-11-26T17:07:14.709Z,4.20
2022-11-26T17:09:44.027Z,4.20
2022-11-26T17:12:16.071Z,4.10
2022-11-26T17:14:44.223Z,4.10
2022-11-26T17:17:13.606Z,4.10
2022-11-26T17:19:42.017Z,4.10
2022-11-26T17:22:10.113Z,4.10
2022-11-26T17:24:38.218Z,3.90
2022-11-26T17:27:10.915Z,3.80
2022-11-26T17:29:42.818Z,3.70
2022-11-26T17:32:12.219Z,3.70
2022-11-26T17:34:40.099Z,3.90
2022-11-26T17:37:10.759Z,4.00
2022-11-26T17:39:39.059Z,3.70
2022-11-26T17:42:08.845Z,3.70
2022-11-26T17:44:36.916Z,3.90
2022-11-26T17:47:20.308Z,3.80
2022-11-26T17:49:48.934Z,3.70
2022-11-26T17:52:17.479Z,3.60
2022-11-26T17:54:45.611Z,3.50
2022-11-26T17:57:15.676Z,3.40
2022-11-26T17:59:43.659Z,3.30
2022-11-26T18:02:11.763Z,3.20
2022-11-26T18:04:39.696Z,3.20
2022-11-26T18:07:19.343Z,3.10
2022-11-26T18:09:47.601Z,2.90
2022-11-26T18:12:24.438Z,3.00
2022-11-26T18:14:53.034Z,3.10
2022-11-26T18:17:20.927Z,3.10
2022-11-26T18:19:49.285Z,3.00
2022-11-26T18:22:18.119Z,2.90
2022-11-26T18:24:56.126Z,2.70
2022-11-26T18:27:27.452Z,2.60
2022-11-26T18:29:55.569Z,2.40
2022-11-26T18:32:24.617Z,2.30
2022-11-26T18:34:52.502Z,2.40
2022-11-26T18:37:20.417Z,2.30
2022-11-26T18:39:48.291Z,2.40
2022-11-26T18:42:36.134Z,2.40
2022-11-26T18:45:06.751Z,2.30
2022-11-26T18:47:34.692Z,2.30
2022-11-26T18:50:02.612Z,2.30
2022-11-26T18:52:30.499Z,2.30
2022-11-26T18:54:58.377Z,2.40
2022-11-26T18:57:26.257Z,2.40
2022-11-26T18:59:54.128Z,2.20
2022-11-26T19:02:23.424Z,2.00
2022-11-26T19:04:51.347Z,2.00
2022-11-26T19:07:19.314Z,2.20
2022-11-26T19:09:47.259Z,2.20
2022-11-26T19:12:15.171Z,2.20
2022-11-26T19:14:43.030Z,2.10
2022-11-26T19:17:11.015Z,2.10
2022-11-26T19:19:40.624Z,2.00
2022-11-26T19:22:08.619Z,2.10
2022-11-26T19:24:36.648Z,2.00
2022-11-26T19:27:04.540Z,1.90
2022-11-26T19:29:32.449Z,1.90
2022-11-26T19:32:00.354Z,1.90
2022-11-26T19:34:28.284Z,1.80
2022-11-26T19:36:58.199Z,2.10
2022-11-26T19:39:26.104Z,2.00
2022-11-26T19:41:54.405Z,1.70
2022-11-26T19:44:22.550Z,1.70
2022-11-26T19:46:50.469Z,1.90
2022-11-26T19:49:18.396Z,2.00
2022-11-26T19:51:46.265Z,1.90
2022-11-26T19:54:15.565Z,1.80
2022-11-26T19:56:43.726Z,1.80
2022-11-26T19:59:11.681Z,1.50
2022-11-26T20:01:39.610Z,1.70
2022-11-26T20:04:08.539Z,1.70
2022-11-26T20:06:36.782Z,1.50
2022-11-26T20:09:04.916Z,1.40
2022-11-26T20:11:36.238Z,1.40
2022-11-26T20:14:04.331Z,1.50
2022-11-26T20:16:32.930Z,1.50
2022-11-26T20:19:02.225Z,1.20
2022-11-26T20:21:32.228Z,1.10
2022-11-26T20:24:01.210Z,1.20
2022-11-26T20:26:31.238Z,1.30
2022-11-26T20:29:02.671Z,1.40
2022-11-26T20:31:30.813Z,1.40
2022-11-26T20:33:58.899Z,1.30
2022-11-26T20:36:27.079Z,1.20
2022-11-26T20:38:55.096Z,1.30
2022-11-26T20:41:23.693Z,1.30
2022-11-26T20:43:56.776Z,1.40
2022-11-26T20:46:28.512Z,1.40
2022-11-26T20:48:56.847Z,1.80
2022-11-26T20:51:24.868Z,1.80
2022-11-26T20:53:53.271Z,1.50
2022-11-26T20:56:22.306Z,1.30
2022-11-26T20:58:50.395Z,1.20
2022-11-26T21:01:19.266Z,1.20
2022-11-26T21:03:48.604Z,1.10
2022-11-26T21:06:18.508Z,1.20
2022-11-26T21:08:46.358Z,1.20
2022-11-26T21:11:14.709Z,1.20
2022-11-26T21:13:42.934Z,1.20
2022-11-26T21:16:11.771Z,1.10
2022-11-26T21:18:39.867Z,1.00
2022-11-26T21:21:12.877Z,0.90
2022-11-26T21:23:41.370Z,0.90
2022-11-26T21:26:09.920Z,1.00
2022-11-26T21:28:37.943Z,0.90
2022-11-26T21:31:06.904Z,0.80
2022-11-26T21:33:34.984Z,0.90
2022-11-26T21:36:07.150Z,0.90
2022-11-26T21:38:36.708Z,0.90
2022-11-26T21:41:07.891Z,0.90
2022-11-26T21:43:35.887Z,0.80
2022-11-26T21:46:04.640Z,0.90
2022-11-26T21:48:32.664Z,0.80
2022-11-26T21:51:00.640Z,0.80
2022-11-26T21:53:28.550Z,0.90
2022-11-26T21:55:57.884Z,0.90
2022-11-26T21:58:25.808Z,0.90
2022-11-26T22:00:53.839Z,0.90
2022-11-26T22:03:21.820Z,0.90
2022-11-26T22:05:49.735Z,0.80
2022-11-26T22:08:17.754Z,0.80
2022-11-26T22:10:45.732Z,0.80
2022-11-26T22:13:15.010Z,0.70
2022-11-26T22:15:44.411Z,0.50
2022-11-26T22:18:12.371Z,0.50
2022-11-26T22:20:40.480Z,0.40
2022-11-26T22:23:08.364Z,0.40
2022-11-26T22:25:36.383Z,0.40
2022-11-26T22:28:04.337Z,0.30
2022-11-26T22:30:33.667Z,0.30
2022-11-26T22:33:01.581Z,0.40
2022-11-26T22:35:29.516Z,0.60
2022-11-26T22:37:57.412Z,0.50
2022-11-26T22:40:25.450Z,0.80
2022-11-26T22:42:55.117Z,0.60
2022-11-26T22:45:23.407Z,0.60
2022-11-26T22:47:53.133Z,0.70
2022-11-26T22:50:21.129Z,0.60
2022-11-26T22:52:49.065Z,0.60
2022-11-26T22:55:17.395Z,0.60
2022-11-26T22:57:45.307Z,0.60
2022-11-26T23:00:16.395Z,0.60
2022-11-26T23:02:44.732Z,0.60
2022-11-26T23:05:14.283Z,0.50
2022-11-26T23:07:42.328Z,0.60
2022-11-26T23:10:10.963Z,0.60
2022-11-26T23:12:38.910Z,0.70
2022-11-26T23:15:07.569Z,0.60
2022-11-26T23:17:35.583Z,0.60
2022-11-26T23:20:03.927Z,0.70
2022-11-26T23:22:33.180Z,0.50
2022-11-26T23:25:01.085Z,0.40
2022-11-26T23:27:29.007Z,0.30
2022-11-26T23:29:56.930Z,0.30
2022-11-26T23:32:28.263Z,0.50
2022-11-26T23:35:00.067Z,0.40
2022-11-26T23:37:27.970Z,0.60
2022-11-26T23:39:57.213Z,0.60
2022-11-26T23:42:25.466Z,0.30
2022-11-26T23:44:53.355Z,0.20
2022-11-26T23:47:22.005Z,0.10
2022-11-26T23:49:49.940Z,0.30
2022-11-26T23:52:18.027Z,0.40
2022-11-26T23:54:46.196Z,0.30
2022-11-26T23:57:15.453Z,0.10
2022-11-26T23:59:43.734Z,0.30
